createdAt,value
2022-08-25T00:01:32.310Z,34.42
2022-08-25T00:03:59.765Z,34.25
2022-08-25T00:06:26.554Z,34.51
2022-08-25T00:08:53.291Z,34.71
2022-08-25T00:11:23.913Z,34.60
2022-08-25T00:13:54.180Z,34.32
2022-08-25T00:16:22.558Z,34.46
2022-08-25T00:18:53.304Z,34.67
2022-08-25T00:21:20.175Z,34.13
2022-08-25T00:23:46.800Z,34.49
2022-08-25T00:26:14.990Z,34.88
2022-08-25T00:28:43.189Z,35.16
2022-08-25T00:31:15.881Z,35.22
2022-08-25T00:33:46.780Z,35.38
2022-08-25T00:36:14.369Z,35.18
2022-08-25T00:38:41.879Z,35.00
2022-08-25T00:41:11.350Z,35.20
2022-08-25T00:43:41.574Z,35.05
2022-08-25T00:46:09.539Z,34.98
2022-08-25T00:48:37.313Z,35.30
2022-08-25T00:51:05.265Z,34.71
2022-08-25T00:53:32.319Z,35.14
2022-08-25T00:55:59.188Z,35.00
2022-08-25T00:58:27.941Z,35.03
2022-08-25T01:00:56.122Z,35.25
2022-08-25T01:03:33.051Z,35.46
2022-08-25T01:06:02.083Z,35.58
2022-08-25T01:08:29.985Z,35.49
2022-08-25T01:11:02.942Z,35.14
2022-08-25T01:13:33.964Z,35.49
2022-08-25T01:16:00.999Z,35.52
2022-08-25T01:18:28.358Z,35.54
2022-08-25T01:20:57.433Z,35.92
2022-08-25T01:23:24.822Z,35.47
2022-08-25T01:26:16.988Z,35.31
2022-08-25T01:29:04.694Z,35.68
2022-08-25T01:31:32.189Z,35.47
2022-08-25T01:33:59.527Z,35.89
2022-08-25T01:36:27.889Z,35.68
2022-08-25T01:38:54.879Z,35.78
2022-08-25T01:41:27.714Z,36.10
2022-08-25T01:43:54.262Z,35.87
2022-08-25T01:46:21.250Z,36.16
2022-08-25T01:48:48.039Z,35.89
2022-08-25T01:51:15.791Z,36.22
2022-08-25T01:53:44.217Z,36.02
2022-08-25T01:56:13.855Z,36.19
2022-08-25T01:58:46.766Z,36.40
2022-08-25T02:01:17.629Z,36.80
2022-08-25T02:03:46.358Z,36.61
2022-08-25T02:06:17.665Z,36.78
2022-08-25T02:08:44.707Z,36.65
2022-08-25T02:11:13.482Z,36.27
2022-08-25T02:13:41.638Z,36.42
2022-08-25T02:16:10.223Z,35.97
2022-08-25T02:18:36.847Z,37.09
2022-08-25T02:21:03.642Z,37.21
2022-08-25T02:23:30.146Z,37.24
2022-08-25T02:25:57.301Z,37.30
2022-08-25T02:28:24.908Z,37.31
2022-08-25T02:30:53.011Z,37.24
2022-08-25T02:33:25.739Z,37.07
2022-08-25T02:35:52.334Z,37.06
2022-08-25T02:38:19.145Z,36.96
2022-08-25T02:40:45.876Z,37.22
2022-08-25T02:43:12.566Z,36.81
2022-08-25T02:45:39.096Z,36.97
2022-08-25T02:48:05.805Z,37.03
2022-08-25T02:50:33.283Z,36.89
2022-08-25T02:52:59.838Z,37.76
2022-08-25T02:55:26.726Z,37.38
2022-08-25T02:57:53.254Z,37.47
2022-08-25T03:00:20.002Z,37.25
2022-08-25T03:02:47.262Z,37.62
2022-08-25T03:05:14.892Z,37.89
2022-08-25T03:07:41.908Z,37.61
2022-08-25T03:10:14.548Z,37.81
2022-08-25T03:12:41.676Z,37.96
2022-08-25T03:15:12.912Z,37.64
2022-08-25T03:17:40.102Z,37.69
2022-08-25T03:20:08.136Z,37.90
2022-08-25T03:22:34.941Z,38.36
2022-08-25T03:25:24.073Z,38.26
2022-08-25T03:27:51.894Z,38.41
2022-08-25T03:30:19.259Z,38.27
2022-08-25T03:32:46.221Z,38.20
2022-08-25T03:35:12.878Z,38.13
2022-08-25T03:37:39.803Z,38.04
2022-08-25T03:40:09.380Z,38.25
2022-08-25T03:42:46.088Z,38.27
2022-08-25T03:45:14.060Z,38.56
2022-08-25T03:47:41.229Z,39.01
2022-08-25T03:50:10.181Z,39.04
2022-08-25T03:52:42.271Z,39.05
2022-08-25T03:55:12.336Z,39.30
2022-08-25T03:57:39.370Z,39.17
2022-08-25T04:00:09.486Z,39.28
2022-08-25T04:02:36.084Z,40.55
2022-08-25T04:05:03.339Z,40.10
2022-08-25T04:07:30.482Z,40.27
2022-08-25T04:09:57.047Z,40.53
2022-08-25T04:12:24.285Z,40.66
2022-08-25T04:14:51.011Z,40.47
2022-08-25T04:17:18.238Z,40.21
2022-08-25T04:19:44.798Z,40.71
2022-08-25T04:22:11.546Z,39.87
2022-08-25T04:24:40.205Z,39.71
2022-08-25T04:27:06.867Z,40.12
2022-08-25T04:29:33.890Z,40.86
2022-08-25T04:32:00.513Z,40.77
2022-08-25T04:34:29.761Z,40.99
2022-08-25T04:37:01.753Z,41.02
2022-08-25T04:39:28.841Z,41.07
2022-08-25T04:41:55.493Z,41.05
2022-08-25T04:44:22.285Z,41.19
2022-08-25T04:46:49.688Z,41.11
2022-08-25T04:49:16.252Z,41.97
2022-08-25T04:51:43.034Z,42.06
2022-08-25T04:54:12.681Z,42.61
2022-08-25T04:56:41.307Z,42.49
2022-08-25T04:59:12.173Z,42.88
2022-08-25T05:01:39.779Z,42.77
2022-08-25T05:04:08.298Z,42.55
2022-08-25T05:06:41.899Z,42.31
2022-08-25T05:09:09.236Z,42.71
2022-08-25T05:11:37.419Z,43.19
2022-08-25T05:14:04.532Z,42.80
2022-08-25T05:16:31.715Z,42.40
2022-08-25T05:18:58.819Z,42.95
2022-08-25T05:21:27.258Z,41.86
2022-08-25T05:23:57.806Z,41.82
2022-08-25T05:26:25.944Z,41.38
2022-08-25T05:28:54.275Z,41.13
2022-08-25T05:31:22.464Z,41.17
2022-08-25T05:33:49.124Z,41.50
2022-08-25T05:36:17.199Z,42.17
2022-08-25T05:38:44.153Z,42.40
2022-08-25T05:41:13.239Z,42.18
2022-08-25T05:43:41.273Z,42.59
2022-08-25T05:46:08.274Z,43.06
2022-08-25T05:48:35.531Z,42.45
2022-08-25T05:51:04.502Z,41.93
2022-08-25T05:53:33.694Z,42.55
2022-08-25T05:56:01.737Z,42.08
2022-08-25T05:58:29.688Z,43.15
2022-08-25T06:00:57.985Z,42.72
2022-08-25T06:03:24.672Z,43.09
2022-08-25T06:05:51.300Z,43.20
2022-08-25T06:08:17.821Z,43.38
2022-08-25T06:10:44.338Z,44.21
2022-08-25T06:13:10.969Z,43.06
2022-08-25T06:15:38.581Z,43.37
2022-08-25T06:18:05.189Z,43.60
2022-08-25T06:20:32.267Z,44.15
2022-08-25T06:22:59.383Z,44.79
2022-08-25T06:25:27.067Z,44.47
2022-08-25T06:27:54.886Z,45.45
2022-08-25T06:30:24.619Z,44.54
2022-08-25T06:32:55.908Z,44.28
2022-08-25T06:35:22.786Z,44.69
2022-08-25T06:37:49.409Z,44.75
2022-08-25T06:40:16.922Z,44.92
2022-08-25T06:42:48.383Z,43.97
2022-08-25T06:45:14.990Z,44.18
2022-08-25T06:47:41.645Z,44.02
2022-08-25T06:50:08.655Z,44.32
2022-08-25T06:52:35.690Z,43.21
2022-08-25T06:55:03.371Z,42.67
2022-08-25T06:57:31.693Z,41.90
2022-08-25T06:59:59.731Z,41.75
2022-08-25T07:02:26.369Z,41.48
2022-08-25T07:04:53.626Z,41.65
2022-08-25T07:07:20.204Z,41.39
2022-08-25T07:09:46.958Z,40.56
2022-08-25T07:12:13.756Z,41.53
2022-08-25T07:14:40.312Z,41.05
2022-08-25T07:17:23.573Z,40.77
2022-08-25T07:19:51.568Z,40.12
2022-08-25T07:22:24.290Z,40.46
2022-08-25T07:24:50.807Z,40.16
2022-08-25T07:27:17.315Z,39.89
2022-08-25T07:29:44.070Z,39.60
2022-08-25T07:32:10.898Z,39.74
2022-08-25T07:34:56.267Z,39.02
2022-08-25T07:37:47.512Z,39.58
2022-08-25T07:40:15.571Z,40.62
2022-08-25T07:42:42.360Z,40.39
2022-08-25T07:45:10.830Z,39.35
2022-08-25T07:47:38.961Z,38.25
2022-08-25T07:50:07.916Z,39.09
2022-08-25T07:52:34.630Z,39.76
2022-08-25T07:55:01.884Z,38.98
2022-08-25T07:57:29.613Z,38.29
2022-08-25T07:59:56.647Z,37.10
2022-08-25T08:02:24.738Z,37.26
2022-08-25T08:04:53.110Z,36.78
2022-08-25T08:07:25.791Z,37.52
2022-08-25T08:12:57.215Z,36.80
2022-08-25T08:15:23.853Z,36.76
2022-08-25T08:17:50.496Z,35.59
2022-08-25T08:20:17.793Z,36.38
2022-08-25T08:22:49.974Z,35.98
2022-08-25T08:25:21.334Z,35.49
2022-08-25T08:27:55.111Z,34.73
2022-08-25T08:30:23.822Z,35.06
2022-08-25T08:33:09.176Z,34.36
2022-08-25T08:35:36.493Z,33.46
2022-08-25T08:38:03.843Z,33.21
2022-08-25T08:40:31.336Z,33.36
2022-08-25T08:43:17.997Z,33.73
2022-08-25T08:45:53.104Z,33.25
2022-08-25T08:48:44.149Z,32.00
2022-08-25T08:51:23.193Z,33.48
2022-08-25T08:53:57.477Z,32.00
2022-08-25T08:56:31.592Z,31.48
2022-08-25T08:59:19.129Z,31.27
2022-08-25T09:01:52.463Z,31.66
2022-08-25T09:04:26.415Z,30.75
2022-08-25T09:06:55.264Z,30.20
2022-08-25T09:09:36.065Z,28.68
2022-08-25T09:12:25.908Z,29.05
2022-08-25T09:15:15.285Z,28.61
2022-08-25T09:18:04.635Z,27.72
2022-08-25T09:20:53.050Z,25.80
2022-08-25T09:23:34.909Z,26.73
2022-08-25T09:26:29.923Z,25.56
2022-08-25T09:29:16.655Z,24.31
2022-08-25T09:31:43.711Z,23.44
2022-08-25T09:34:31.942Z,20.35
2022-08-25T09:36:59.313Z,16.53
2022-08-25T09:39:27.510Z,13.01
2022-08-25T09:41:56.907Z,10.47
2022-08-25T09:44:26.874Z,10.04
2022-08-25T09:47:01.805Z,8.12
2022-08-25T09:49:44.356Z,8.21
2022-08-25T09:52:31.784Z,7.24
2022-08-25T09:55:24.687Z,7.92
2022-08-25T09:57:56.836Z,8.25
2022-08-25T10:00:34.785Z,9.08
2022-08-25T10:03:09.209Z,7.12
2022-08-25T10:05:48.571Z,6.54
2022-08-25T10:08:45.998Z,5.76
2022-08-25T10:11:15.541Z,6.50
2022-08-25T10:13:43.470Z,6.08
2022-08-25T10:16:17.708Z,7.87
2022-08-25T10:19:07.247Z,5.64
2022-08-25T10:21:36.412Z,6.02
2022-08-25T10:24:05.844Z,5.99
2022-08-25T10:27:03.342Z,5.15
2022-08-25T10:29:45.153Z,4.76
2022-08-25T10:32:46.947Z,4.47
2022-08-25T10:35:41.437Z,7.65
2022-08-25T10:38:35.256Z,6.65
2022-08-25T10:41:41.694Z,6.68
2022-08-25T10:44:54.167Z,5.42
2022-08-25T10:47:40.922Z,4.54
2022-08-25T10:51:07.107Z,3.66
2022-08-25T10:53:54.549Z,5.34
2022-08-25T10:56:31.817Z,5.04
2022-08-25T10:59:07.689Z,4.08
2022-08-25T11:02:03.384Z,4.61
2022-08-25T11:04:39.155Z,4.53
2022-08-25T11:07:16.662Z,4.73
2022-08-25T11:09:48.059Z,4.41
2022-08-25T11:12:20.088Z,4.42
2022-08-25T11:14:50.056Z,4.99
2022-08-25T11:17:25.854Z,5.85
2022-08-25T11:19:55.810Z,5.48
2022-08-25T11:22:37.843Z,5.10
2022-08-25T11:25:21.699Z,3.72
2022-08-25T11:28:08.214Z,3.56
2022-08-25T11:30:35.068Z,3.94
2022-08-25T11:33:01.780Z,3.20
2022-08-25T11:35:35.893Z,4.55
2022-08-25T11:38:18.266Z,4.37
2022-08-25T11:41:11.240Z,4.47
2022-08-25T11:44:15.720Z,3.82
2022-08-25T11:47:00.323Z,3.21
2022-08-25T11:49:58.366Z,3.48
2022-08-25T11:52:34.578Z,3.56
2022-08-25T11:55:16.775Z,5.68
2022-08-25T11:57:47.909Z,5.68
2022-08-25T12:00:29.144Z,5.74
2022-08-25T12:03:00.854Z,5.60
2022-08-25T12:05:28.098Z,6.21
2022-08-25T12:08:14.944Z,5.57
2022-08-25T12:10:59.487Z,5.62
2022-08-25T12:13:47.563Z,4.44
2022-08-25T12:16:36.179Z,5.82
2022-08-25T12:19:28.737Z,6.36
2022-08-25T12:22:03.557Z,9.65
2022-08-25T12:24:47.574Z,12.82
2022-08-25T12:27:27.073Z,15.12
2022-08-25T12:30:24.382Z,17.32
2022-08-25T12:33:15.270Z,16.99
2022-08-25T12:36:02.421Z,18.14
2022-08-25T12:38:50.902Z,18.56
2022-08-25T12:41:22.529Z,19.65
2022-08-25T12:43:53.746Z,20.16
2022-08-25T12:46:23.209Z,20.71
2022-08-25T12:49:00.493Z,22.23
2022-08-25T12:51:41.103Z,22.21
2022-08-25T12:54:36.514Z,21.28
2022-08-25T12:57:25.113Z,21.32
2022-08-25T12:59:58.642Z,21.60
2022-08-25T13:03:04.011Z,21.26
2022-08-25T13:05:45.238Z,21.78
2022-08-25T13:08:15.490Z,20.67
2022-08-25T13:11:14.210Z,21.83
2022-08-25T13:13:52.765Z,21.27
2022-08-25T13:16:26.966Z,21.23
2022-08-25T13:18:59.072Z,21.30
2022-08-25T13:21:39.193Z,22.54
2022-08-25T13:24:09.541Z,24.08
2022-08-25T13:26:48.393Z,23.53
2022-08-25T13:29:27.844Z,23.29
2022-08-25T13:31:57.459Z,22.55
2022-08-25T13:34:34.856Z,22.77
2022-08-25T13:37:25.085Z,22.78
2022-08-25T13:40:11.637Z,22.50
2022-08-25T13:42:45.130Z,21.95
2022-08-25T13:45:30.099Z,21.32
2022-08-25T13:47:59.055Z,21.13
2022-08-25T13:50:26.368Z,22.31
2022-08-25T13:52:56.085Z,22.37
2022-08-25T13:55:27.689Z,21.70
2022-08-25T13:57:57.842Z,21.40
2022-08-25T14:00:31.699Z,21.43
2022-08-25T14:02:59.737Z,22.12
2022-08-25T14:05:41.985Z,22.16
2022-08-25T14:08:38.719Z,20.86
2022-08-25T14:11:15.581Z,21.10
2022-08-25T14:13:45.553Z,21.41
2022-08-25T14:16:14.261Z,20.88
2022-08-25T14:18:58.784Z,20.77
2022-08-25T14:21:28.709Z,20.28
2022-08-25T14:23:55.961Z,20.36
2022-08-25T14:26:23.521Z,20.24
2022-08-25T14:28:53.297Z,21.62
2022-08-25T14:31:46.367Z,20.59
2022-08-25T14:34:16.865Z,20.00
2022-08-25T14:36:43.834Z,20.57
2022-08-25T14:39:11.637Z,20.03
2022-08-25T14:41:41.022Z,20.15
2022-08-25T14:44:09.914Z,19.99
2022-08-25T14:46:39.249Z,21.12
2022-08-25T14:49:12.887Z,21.13
2022-08-25T14:51:41.426Z,21.38
2022-08-25T14:54:14.879Z,20.92
2022-08-25T14:56:42.995Z,20.78
2022-08-25T14:59:09.978Z,20.25
2022-08-25T15:01:36.717Z,19.85
2022-08-25T15:04:08.415Z,19.90
2022-08-25T15:06:36.343Z,20.46
2022-08-25T15:09:11.663Z,20.44
2022-08-25T15:11:41.957Z,20.84
2022-08-25T15:14:10.785Z,21.16
2022-08-25T15:16:43.461Z,21.50
2022-08-25T15:19:14.402Z,21.54
2022-08-25T15:21:43.245Z,21.65
2022-08-25T15:24:12.375Z,21.25
2022-08-25T15:29:20.785Z,21.07
2022-08-25T15:31:47.850Z,21.40
2022-08-25T15:34:15.312Z,21.50
2022-08-25T15:36:42.229Z,20.59
2022-08-25T15:39:10.140Z,20.81
2022-08-25T15:41:37.962Z,20.56
2022-08-25T15:44:06.617Z,20.65
2022-08-25T15:46:36.260Z,20.97
2022-08-25T15:49:02.923Z,21.14
2022-08-25T15:51:29.814Z,20.89
2022-08-25T15:53:57.261Z,20.60
2022-08-25T15:56:26.735Z,21.03
2022-08-25T15:58:54.276Z,20.21
2022-08-25T16:01:26.644Z,20.36
2022-08-25T16:03:53.986Z,20.31
2022-08-25T16:06:20.620Z,21.48
2022-08-25T16:08:48.218Z,21.54
2022-08-25T16:11:29.587Z,20.98
2022-08-25T16:13:57.503Z,21.15
2022-08-25T16:16:26.337Z,20.82
2022-08-25T16:18:53.584Z,21.56
2022-08-25T16:21:25.631Z,21.66
2022-08-25T16:23:58.263Z,21.27
2022-08-25T16:26:26.519Z,21.55
2022-08-25T16:28:53.138Z,22.59
2022-08-25T16:31:20.658Z,22.54
2022-08-25T16:33:47.306Z,23.25
2022-08-25T16:36:25.405Z,22.56
2022-08-25T16:38:55.154Z,22.97
2022-08-25T16:41:27.192Z,23.69
2022-08-25T16:43:54.153Z,23.88
2022-08-25T16:46:23.802Z,24.35
2022-08-25T16:48:50.774Z,24.19
2022-08-25T16:51:22.745Z,24.13
2022-08-25T16:54:15.164Z,24.00
2022-08-25T16:56:48.817Z,24.21
2022-08-25T16:59:22.060Z,24.60
2022-08-25T17:01:51.123Z,25.56
2022-08-25T17:04:17.847Z,25.62
2022-08-25T17:06:51.771Z,25.42
2022-08-25T17:09:23.939Z,25.60
2022-08-25T17:11:54.170Z,25.84
2022-08-25T17:14:21.230Z,25.71
2022-08-25T17:16:48.572Z,25.84
2022-08-25T17:19:17.382Z,26.36
2022-08-25T17:21:48.332Z,26.68
2022-08-25T17:24:17.064Z,26.71
2022-08-25T17:26:46.092Z,26.92
2022-08-25T17:29:13.021Z,26.81
2022-08-25T17:31:40.193Z,26.67
2022-08-25T17:34:10.405Z,27.19
2022-08-25T17:36:37.843Z,26.81
2022-08-25T17:39:08.649Z,27.18
2022-08-25T17:41:37.581Z,26.81
2022-08-25T17:44:05.455Z,27.24
2022-08-25T17:46:32.481Z,27.26
2022-08-25T17:48:59.207Z,27.40
2022-08-25T17:51:25.834Z,26.84
2022-08-25T17:53:52.819Z,27.40
2022-08-25T17:56:21.915Z,27.47
2022-08-25T17:58:49.837Z,27.79
2022-08-25T18:01:23.070Z,27.33
2022-08-25T18:03:49.944Z,26.97
2022-08-25T18:06:17.211Z,27.44
2022-08-25T18:08:45.002Z,27.70
2022-08-25T18:11:19.728Z,27.48
2022-08-25T18:13:46.990Z,27.81
2022-08-25T18:16:13.646Z,28.18
2022-08-25T18:18:41.233Z,27.89
2022-08-25T18:21:12.847Z,28.29
2022-08-25T18:23:39.488Z,27.99
2022-08-25T18:26:06.832Z,28.19
2022-08-25T18:28:33.397Z,28.59
2022-08-25T18:31:01.869Z,28.38
2022-08-25T18:33:29.907Z,28.85
2022-08-25T18:35:57.634Z,28.56
2022-08-25T18:38:43.165Z,28.78
2022-08-25T18:41:10.952Z,28.89
2022-08-25T18:43:39.025Z,29.12
2022-08-25T18:46:06.957Z,29.40
2022-08-25T18:48:34.895Z,29.56
2022-08-25T18:51:02.099Z,29.71
2022-08-25T18:53:30.621Z,29.81
2022-08-25T18:56:05.636Z,29.94
2022-08-25T18:58:32.451Z,30.12
2022-08-25T19:01:00.813Z,29.95
2022-08-25T19:03:28.203Z,30.28
2022-08-25T19:05:57.259Z,30.01
2022-08-25T19:08:24.118Z,30.22
2022-08-25T19:10:52.791Z,30.21
2022-08-25T19:13:22.408Z,30.33
2022-08-25T19:15:50.929Z,30.81
2022-08-25T19:18:18.840Z,30.18
2022-08-25T19:20:52.573Z,30.52
2022-08-25T19:23:19.566Z,30.58
2022-08-25T19:25:46.757Z,30.82
2022-08-25T19:28:13.422Z,31.22
2022-08-25T19:30:50.527Z,31.03
2022-08-25T19:33:42.731Z,31.19
2022-08-25T19:36:06.328Z,31.31
2022-08-25T19:38:37.156Z,31.22
2022-08-25T19:41:13.946Z,31.23
2022-08-25T19:43:55.591Z,31.16
2022-08-25T19:46:32.780Z,30.96
2022-08-25T19:49:22.416Z,31.09
2022-08-25T19:51:51.404Z,31.96
2022-08-25T19:54:22.047Z,31.99
2022-08-25T19:56:54.772Z,32.02
2022-08-25T19:59:25.367Z,31.83
2022-08-25T20:01:53.220Z,32.00
2022-08-25T20:04:20.143Z,32.47
2022-08-25T20:06:48.275Z,32.18
2022-08-25T20:09:35.497Z,32.38
2022-08-25T20:12:03.637Z,32.63
2022-08-25T20:14:33.931Z,33.05
2022-08-25T20:17:01.712Z,32.73
2022-08-25T20:19:30.474Z,32.70
2022-08-25T20:21:57.246Z,32.61
2022-08-25T20:24:43.630Z,32.93
2022-08-25T20:27:10.694Z,33.39
2022-08-25T20:29:37.440Z,33.89
2022-08-25T20:32:05.136Z,33.57
2022-08-25T20:34:32.575Z,33.70
2022-08-25T20:37:00.869Z,34.21
2022-08-25T20:39:27.476Z,33.69
2022-08-25T20:41:54.155Z,33.99
2022-08-25T20:44:23.192Z,34.41
2022-08-25T20:46:51.509Z,34.26
2022-08-25T20:49:20.146Z,34.88
2022-08-25T20:51:46.758Z,34.52
2022-08-25T20:54:17.164Z,34.65
2022-08-25T20:56:44.014Z,34.78
2022-08-25T20:59:11.649Z,34.46
2022-08-25T21:01:39.834Z,34.13
2022-08-25T21:04:08.690Z,34.32
2022-08-25T21:06:36.005Z,34.22
2022-08-25T21:09:05.794Z,34.51
2022-08-25T21:11:39.893Z,34.44
2022-08-25T21:14:07.010Z,34.90
2022-08-25T21:16:36.661Z,34.53
2022-08-25T21:19:04.620Z,35.15
2022-08-25T21:21:38.011Z,35.03
2022-08-25T21:24:07.362Z,35.50
2022-08-25T21:26:37.293Z,35.09
2022-08-25T21:29:15.318Z,35.51
2022-08-25T21:31:42.534Z,36.09
2022-08-25T21:34:10.967Z,35.55
2022-08-25T21:36:39.065Z,35.80
2022-08-25T21:39:05.879Z,36.14
2022-08-25T21:41:33.679Z,35.62
2022-08-25T21:44:01.402Z,35.81
2022-08-25T21:46:30.721Z,35.47
2022-08-25T21:48:58.913Z,35.61
2022-08-25T21:51:33.353Z,35.11
2022-08-25T21:54:11.700Z,35.05
2022-08-25T21:56:44.391Z,34.67
2022-08-25T21:59:13.654Z,34.38
2022-08-25T22:01:41.055Z,34.67
2022-08-25T22:04:09.070Z,35.22
2022-08-25T22:06:36.156Z,35.23
2022-08-25T22:09:04.976Z,35.28
2022-08-25T22:11:33.937Z,35.42
2022-08-25T22:14:03.545Z,35.95
2022-08-25T22:16:33.031Z,36.67
2022-08-25T22:18:59.868Z,36.87
2022-08-25T22:21:31.900Z,37.00
2022-08-25T22:23:59.393Z,36.49
2022-08-25T22:26:29.094Z,36.30
2022-08-25T22:28:57.129Z,36.37
2022-08-25T22:31:23.980Z,36.51
2022-08-25T22:33:51.640Z,36.60
2022-08-25T22:36:20.625Z,36.72
2022-08-25T22:38:47.819Z,36.59
2022-08-25T22:41:19.032Z,37.25
2022-08-25T22:43:49.157Z,37.44
2022-08-25T22:46:17.144Z,36.90
2022-08-25T22:48:44.514Z,37.83
2022-08-25T22:51:15.345Z,37.80
2022-08-25T22:53:43.198Z,37.69
2022-08-25T22:56:10.835Z,38.12
2022-08-25T22:58:39.156Z,37.76
2022-08-25T23:01:13.079Z,38.64
2022-08-25T23:03:44.200Z,38.71
2022-08-25T23:06:24.816Z,39.68
2022-08-25T23:08:53.586Z,39.92
2022-08-25T23:11:21.466Z,40.08
2022-08-25T23:13:48.974Z,39.83
2022-08-25T23:16:17.123Z,40.20
2022-08-25T23:18:45.002Z,41.30
2022-08-25T23:21:38.048Z,40.38
2022-08-25T23:24:10.953Z,40.47
2022-08-25T23:26:42.511Z,40.70
2022-08-25T23:29:18.648Z,39.57
2022-08-25T23:31:48.799Z,39.19
2022-08-25T23:34:16.693Z,39.63
2022-08-25T23:36:44.567Z,39.05
2022-08-25T23:39:11.296Z,39.25
2022-08-25T23:41:38.474Z,39.17
2022-08-25T23:44:06.207Z,39.13
2022-08-25T23:46:35.241Z,39.30
2022-08-25T23:49:03.996Z,39.45
2022-08-25T23:51:33.745Z,39.82
2022-08-25T23:54:05.781Z,39.26
2022-08-25T23:56:34.318Z,39.55
2022-08-25T23:59:03.252Z,40.31
